PWSweather.com
Personal Weather Stations
Station Observations
KMIEASTT1
Tawas Bay, East Tawas, MI 48730

Tawas BayEast Tawas, MI 48730

Lat: 44.28, Lon: -83.48

Elevation: 600

Station Type: Davis VantagePro

http://www.tawasbayweather.com

High Low Average
Temperature 45.0°F7.2°C 36.2°F2.3°C 39.5°F4.2°C
Dew Point 41.4°F5.2°C 28.4°F-2.0°C 32.9°F0.5°C
Winds 14.0 mph 22.5 kmh Calm Calm 6.0 mph WNW9.7 kmh WNW
Wind Gusts 16.0 mph25.7 kmh 3.0 mph4.8 kmh 10.0 mph16.1 kmh
Humidity 87% 68% 77%
Pressure 30.15 in1021.0 mb 29.73 in1006.8 mb -
Precipitation 0.00 in0.0 mm - -
Hour Temp Dew Point Humidity Winds Wind Gusts Pressure Precip Precip Rate Daily Precip Total
12:02 AM 44.1°F6.7°C 41.1°F5.1°C 89% 12.0 mph WSW19.3 kmh WSW 15.0 mph24.1 kmh 29.73 in1006.8 mb 0.00 in0.0 mm 0.00 in/hr0.0 mm/hr 0.00 in0.0 mm
12:16 AM 44.5°F6.9°C 41.2°F5.1°C 88% 13.0 mph W20.9 kmh W 16.0 mph25.7 kmh 29.73 in1006.8 mb 0.00 in0.0 mm 0.00 in/hr0.0 mm/hr 0.00 in0.0 mm
12:30 AM 44.4°F6.9°C 41.4°F5.2°C 89% 11.0 mph WSW17.7 kmh WSW 15.0 mph24.1 kmh 29.73 in1006.8 mb 0.00 in0.0 mm 0.00 in/hr0.0 mm/hr 0.00 in0.0 mm
12:46 AM 45.1°F7.3°C 41.5°F5.3°C 87% 13.0 mph WSW20.9 kmh WSW 13.0 mph20.9 kmh 29.73 in1006.8 mb 0.00 in0.0 mm 0.00 in/hr0.0 mm/hr 0.00 in0.0 mm
01:02 AM 45.0°F7.2°C 41.4°F5.2°C 87% 7.0 mph W11.3 kmh W 15.0 mph24.1 kmh 29.73 in1006.8 mb 0.00 in0.0 mm 0.00 in/hr0.0 mm/hr 0.00 in0.0 mm
01:16 AM 44.8°F7.1°C 41.2°F5.1°C 87% 7.0 mph WSW11.3 kmh WSW 13.0 mph20.9 kmh 29.73 in1006.8 mb 0.00 in0.0 mm 0.00 in/hr0.0 mm/hr 0.00 in0.0 mm
01:31 AM 44.8°F7.1°C 40.9°F4.9°C 86% 8.0 mph WSW12.9 kmh WSW 16.0 mph25.7 kmh 29.73 in1006.8 mb 0.00 in0.0 mm 0.00 in/hr0.0 mm/hr 0.00 in0.0 mm
01:45 AM 44.4°F6.9°C 40.8°F4.9°C 87% 10.0 mph W16.1 kmh W 15.0 mph24.1 kmh 29.73 in1006.8 mb 0.00 in0.0 mm 0.00 in/hr0.0 mm/hr 0.00 in0.0 mm
02:02 AM 44.2°F6.8°C 40.3°F4.6°C 86% 12.0 mph W19.3 kmh W 16.0 mph25.7 kmh 29.74 in1007.1 mb 0.00 in0.0 mm 0.00 in/hr0.0 mm/hr 0.00 in0.0 mm
02:16 AM 43.9°F6.6°C 40.0°F4.4°C 86% 5.0 mph NW8.0 kmh NW 12.0 mph19.3 kmh 29.74 in1007.1 mb 0.00 in0.0 mm 0.00 in/hr0.0 mm/hr 0.00 in0.0 mm
02:31 AM 43.6°F6.4°C 39.7°F4.3°C 86% 8.0 mph WNW12.9 kmh WNW 13.0 mph20.9 kmh 29.74 in1007.1 mb 0.00 in0.0 mm 0.00 in/hr0.0 mm/hr 0.00 in0.0 mm
02:46 AM 43.1°F6.2°C 39.2°F4.0°C 86% 4.0 mph WNW6.4 kmh WNW 10.0 mph16.1 kmh 29.75 in1007.5 mb 0.00 in0.0 mm 0.00 in/hr0.0 mm/hr 0.00 in0.0 mm
03:02 AM 42.6°F5.9°C 38.7°F3.7°C 86% 5.0 mph W8.0 kmh W 10.0 mph16.1 kmh 29.76 in1007.8 mb 0.00 in0.0 mm 0.00 in/hr0.0 mm/hr 0.00 in0.0 mm
03:16 AM 42.4°F5.8°C 38.2°F3.4°C 85% 5.0 mph W8.0 kmh W 10.0 mph16.1 kmh 29.76 in1007.8 mb 0.00 in0.0 mm 0.00 in/hr0.0 mm/hr 0.00 in0.0 mm
03:31 AM 41.8°F5.4°C 37.9°F3.3°C 86% 4.0 mph WSW6.4 kmh WSW 8.0 mph12.9 kmh 29.77 in1008.1 mb 0.00 in0.0 mm 0.00 in/hr0.0 mm/hr 0.00 in0.0 mm
03:46 AM 41.3°F5.2°C 37.4°F3.0°C 86% 2.0 mph W3.2 kmh W 6.0 mph9.7 kmh 29.78 in1008.5 mb 0.00 in0.0 mm 0.00 in/hr0.0 mm/hr 0.00 in0.0 mm
04:02 AM 41.0°F5.0°C 37.1°F2.8°C 86% 4.0 mph WNW6.4 kmh WNW 5.0 mph8.0 kmh 29.79 in1008.8 mb 0.00 in0.0 mm 0.00 in/hr0.0 mm/hr 0.00 in0.0 mm
04:15 AM 40.6°F4.8°C 36.5°F2.5°C 85% 2.0 mph WNW3.2 kmh WNW 5.0 mph8.0 kmh 29.80 in1009.1 mb 0.00 in0.0 mm 0.00 in/hr0.0 mm/hr 0.00 in0.0 mm
04:31 AM 40.3°F4.6°C 36.2°F2.3°C 85% 6.0 mph WNW9.7 kmh WNW 6.0 mph9.7 kmh 29.81 in1009.5 mb 0.00 in0.0 mm 0.00 in/hr0.0 mm/hr 0.00 in0.0 mm
04:46 AM 40.0°F4.4°C 35.6°F2.0°C 84% 5.0 mph W8.0 kmh W 6.0 mph9.7 kmh 29.81 in1009.5 mb 0.00 in0.0 mm 0.00 in/hr0.0 mm/hr 0.00 in0.0 mm
05:02 AM 39.6°F4.2°C 35.2°F1.8°C 84% 4.0 mph WNW6.4 kmh WNW 5.0 mph8.0 kmh 29.82 in1009.8 mb 0.00 in0.0 mm 0.00 in/hr0.0 mm/hr 0.00 in0.0 mm
05:16 AM 39.5°F4.2°C 35.1°F1.7°C 84% 3.0 mph W4.8 kmh W 13.0 mph20.9 kmh 29.84 in1010.5 mb 0.00 in0.0 mm 0.00 in/hr0.0 mm/hr 0.00 in0.0 mm
05:30 AM 39.5°F4.2°C 34.5°F1.4°C 82% 4.0 mph WNW6.4 kmh WNW 10.0 mph16.1 kmh 29.84 in1010.5 mb 0.00 in0.0 mm 0.00 in/hr0.0 mm/hr 0.00 in0.0 mm
05:46 AM 39.5°F4.2°C 33.9°F1.1°C 80% 5.0 mph N8.0 kmh N 10.0 mph16.1 kmh 29.85 in1010.8 mb 0.00 in0.0 mm 0.00 in/hr0.0 mm/hr 0.00 in0.0 mm
06:02 AM 39.0°F3.9°C 33.1°F0.6°C 79% 1.0 mph NW1.6 kmh NW 7.0 mph11.3 kmh 29.86 in1011.2 mb 0.00 in0.0 mm 0.00 in/hr0.0 mm/hr 0.00 in0.0 mm
06:15 AM 38.6°F3.7°C 33.0°F0.6°C 80% 5.0 mph NW8.0 kmh NW 10.0 mph16.1 kmh 29.86 in1011.2 mb 0.00 in0.0 mm 0.00 in/hr0.0 mm/hr 0.00 in0.0 mm
06:31 AM 38.5°F3.6°C 32.9°F0.5°C 80% 4.0 mph W6.4 kmh W 9.0 mph14.5 kmh 29.87 in1011.5 mb 0.00 in0.0 mm 0.00 in/hr0.0 mm/hr 0.00 in0.0 mm
06:46 AM 38.6°F3.7°C 32.7°F0.4°C 79% 6.0 mph NW9.7 kmh NW 11.0 mph17.7 kmh 29.88 in1011.9 mb 0.00 in0.0 mm 0.00 in/hr0.0 mm/hr 0.00 in0.0 mm
07:02 AM 38.6°F3.7°C 32.7°F0.4°C 79% 2.0 mph NW3.2 kmh NW 11.0 mph17.7 kmh 29.89 in1012.2 mb 0.00 in0.0 mm 0.00 in/hr0.0 mm/hr 0.00 in0.0 mm
07:16 AM 38.3°F3.5°C 32.4°F0.2°C 79% 2.0 mph WNW3.2 kmh WNW 10.0 mph16.1 kmh 29.90 in1012.5 mb 0.00 in0.0 mm 0.00 in/hr0.0 mm/hr 0.00 in0.0 mm
07:31 AM 38.3°F3.5°C 32.4°F0.2°C 79% 10.0 mph NW16.1 kmh NW 10.0 mph16.1 kmh 29.90 in1012.5 mb 0.00 in0.0 mm 0.00 in/hr0.0 mm/hr 0.00 in0.0 mm
07:46 AM 38.2°F3.4°C 32.3°F0.2°C 79% 6.0 mph WNW9.7 kmh WNW 9.0 mph14.5 kmh 29.91 in1012.9 mb 0.00 in0.0 mm 0.00 in/hr0.0 mm/hr 0.00 in0.0 mm
08:02 AM 38.2°F3.4°C 32.3°F0.2°C 79% 4.0 mph NW6.4 kmh NW 7.0 mph11.3 kmh 29.91 in1012.9 mb 0.00 in0.0 mm 0.00 in/hr0.0 mm/hr 0.00 in0.0 mm
08:16 AM 38.0°F3.3°C 32.4°F0.2°C 80% 7.0 mph NW11.3 kmh NW 11.0 mph17.7 kmh 29.92 in1013.2 mb 0.00 in0.0 mm 0.00 in/hr0.0 mm/hr 0.00 in0.0 mm
08:31 AM 38.1°F3.4°C 32.5°F0.3°C 80% 9.0 mph NW14.5 kmh NW 9.0 mph14.5 kmh 29.92 in1013.2 mb 0.00 in0.0 mm 0.00 in/hr0.0 mm/hr 0.00 in0.0 mm
08:45 AM 37.9°F3.3°C 32.3°F0.2°C 80% 6.0 mph W9.7 kmh W 8.0 mph12.9 kmh 29.93 in1013.5 mb 0.00 in0.0 mm 0.00 in/hr0.0 mm/hr 0.00 in0.0 mm
09:02 AM 38.0°F3.3°C 32.4°F0.2°C 80% 3.0 mph WNW4.8 kmh WNW 9.0 mph14.5 kmh 29.94 in1013.9 mb 0.00 in0.0 mm 0.00 in/hr0.0 mm/hr 0.00 in0.0 mm
09:16 AM 38.0°F3.3°C 32.1°F0.1°C 79% 6.0 mph NW9.7 kmh NW 8.0 mph12.9 kmh 29.96 in1014.6 mb 0.00 in0.0 mm 0.00 in/hr0.0 mm/hr 0.00 in0.0 mm
09:30 AM 38.0°F3.3°C 32.1°F0.1°C 79% 8.0 mph NNW12.9 kmh NNW 12.0 mph19.3 kmh 29.96 in1014.6 mb 0.00 in0.0 mm 0.00 in/hr0.0 mm/hr 0.00 in0.0 mm
09:46 AM 38.1°F3.4°C 31.9°F-0.1°C 78% 7.0 mph WNW11.3 kmh WNW 15.0 mph24.1 kmh 29.98 in1015.2 mb 0.00 in0.0 mm 0.00 in/hr0.0 mm/hr 0.00 in0.0 mm
10:02 AM 38.1°F3.4°C 31.5°F-0.3°C 77% 3.0 mph NW4.8 kmh NW 10.0 mph16.1 kmh 29.98 in1015.2 mb 0.00 in0.0 mm 0.00 in/hr0.0 mm/hr 0.00 in0.0 mm
10:16 AM 38.0°F3.3°C 31.4°F-0.3°C 77% 6.0 mph W9.7 kmh W 8.0 mph12.9 kmh 29.99 in1015.6 mb 0.00 in0.0 mm 0.00 in/hr0.0 mm/hr 0.00 in0.0 mm
10:31 AM 38.1°F3.4°C 31.9°F-0.1°C 78% 6.0 mph NNW9.7 kmh NNW 7.0 mph11.3 kmh 29.98 in1015.2 mb 0.00 in0.0 mm 0.00 in/hr0.0 mm/hr 0.00 in0.0 mm
10:46 AM 38.2°F3.4°C 31.3°F-0.4°C 76% 5.0 mph NW8.0 kmh NW 10.0 mph16.1 kmh 29.99 in1015.6 mb 0.00 in0.0 mm 0.00 in/hr0.0 mm/hr 0.00 in0.0 mm
11:16 AM 38.4°F3.6°C 30.9°F-0.6°C 74% 8.0 mph WNW12.9 kmh WNW 13.0 mph20.9 kmh 30.00 in1015.9 mb 0.00 in0.0 mm 0.00 in/hr0.0 mm/hr 0.00 in0.0 mm
11:31 AM 38.9°F3.8°C 31.0°F-0.6°C 73% 8.0 mph WNW12.9 kmh WNW 13.0 mph20.9 kmh 30.00 in1015.9 mb 0.00 in0.0 mm 0.00 in/hr0.0 mm/hr 0.00 in0.0 mm
11:46 AM 38.9°F3.8°C 30.7°F-0.7°C 72% 4.0 mph NW6.4 kmh NW 14.0 mph22.5 kmh 30.00 in1015.9 mb 0.00 in0.0 mm 0.00 in/hr0.0 mm/hr 0.00 in0.0 mm
12:02 PM 39.1°F3.9°C 30.5°F-0.8°C 71% 9.0 mph WNW14.5 kmh WNW 14.0 mph22.5 kmh 30.01 in1016.3 mb 0.00 in0.0 mm 0.00 in/hr0.0 mm/hr 0.00 in0.0 mm
12:15 PM 39.3°F4.1°C 30.4°F-0.9°C 70% 7.0 mph NW11.3 kmh NW 11.0 mph17.7 kmh 30.01 in1016.3 mb 0.00 in0.0 mm 0.00 in/hr0.0 mm/hr 0.00 in0.0 mm
12:30 PM 39.7°F4.3°C 30.7°F-0.7°C 70% 10.0 mph W16.1 kmh W 15.0 mph24.1 kmh 30.02 in1016.6 mb 0.00 in0.0 mm 0.00 in/hr0.0 mm/hr 0.00 in0.0 mm
12:46 PM 39.7°F4.3°C 30.7°F-0.7°C 70% 8.0 mph NNW12.9 kmh NNW 10.0 mph16.1 kmh 30.02 in1016.6 mb 0.00 in0.0 mm 0.00 in/hr0.0 mm/hr 0.00 in0.0 mm
01:02 PM 39.5°F4.2°C 30.5°F-0.8°C 70% 7.0 mph WNW11.3 kmh WNW 12.0 mph19.3 kmh 30.03 in1016.9 mb 0.00 in0.0 mm 0.00 in/hr0.0 mm/hr 0.00 in0.0 mm
01:16 PM 39.5°F4.2°C 30.5°F-0.8°C 70% 14.0 mph NNW22.5 kmh NNW 14.0 mph22.5 kmh 30.03 in1016.9 mb 0.00 in0.0 mm 0.00 in/hr0.0 mm/hr 0.00 in0.0 mm
01:31 PM 39.1°F3.9°C 30.2°F-1.0°C 70% 9.0 mph NW14.5 kmh NW 11.0 mph17.7 kmh 30.04 in1017.3 mb 0.00 in0.0 mm 0.00 in/hr0.0 mm/hr 0.00 in0.0 mm
01:46 PM 39.0°F3.9°C 30.1°F-1.1°C 70% 12.0 mph NW19.3 kmh NW 12.0 mph19.3 kmh 30.05 in1017.6 mb 0.00 in0.0 mm 0.00 in/hr0.0 mm/hr 0.00 in0.0 mm
02:02 PM 38.9°F3.8°C 29.6°F-1.3°C 69% 4.0 mph NW6.4 kmh NW 12.0 mph19.3 kmh 30.05 in1017.6 mb 0.00 in0.0 mm 0.00 in/hr0.0 mm/hr 0.00 in0.0 mm
02:16 PM 39.2°F4.0°C 29.5°F-1.4°C 68% 5.0 mph NW8.0 kmh NW 11.0 mph17.7 kmh 30.05 in1017.6 mb 0.00 in0.0 mm 0.00 in/hr0.0 mm/hr 0.00 in0.0 mm
02:31 PM 38.8°F3.8°C 29.9°F-1.2°C 70% 4.0 mph WNW6.4 kmh WNW 11.0 mph17.7 kmh 30.05 in1017.6 mb 0.00 in0.0 mm 0.00 in/hr0.0 mm/hr 0.00 in0.0 mm
02:46 PM 38.9°F3.8°C 29.6°F-1.3°C 69% 5.0 mph NNW8.0 kmh NNW 9.0 mph14.5 kmh 30.06 in1017.9 mb 0.00 in0.0 mm 0.00 in/hr0.0 mm/hr 0.00 in0.0 mm
03:00 PM 38.7°F3.7°C 29.4°F-1.4°C 69% 11.0 mph W17.7 kmh W 11.0 mph17.7 kmh 30.07 in1018.3 mb 0.00 in0.0 mm 0.00 in/hr0.0 mm/hr 0.00 in0.0 mm
03:16 PM 38.9°F3.8°C 29.6°F-1.3°C 69% 5.0 mph NW8.0 kmh NW 11.0 mph17.7 kmh 30.06 in1017.9 mb 0.00 in0.0 mm 0.00 in/hr0.0 mm/hr 0.00 in0.0 mm
03:31 PM 39.1°F3.9°C 29.8°F-1.2°C 69% 7.0 mph WNW11.3 kmh WNW 7.0 mph11.3 kmh 30.07 in1018.3 mb 0.00 in0.0 mm 0.00 in/hr0.0 mm/hr 0.00 in0.0 mm
03:45 PM 38.6°F3.7°C 29.3°F-1.5°C 69% 6.0 mph WNW9.7 kmh WNW 13.0 mph20.9 kmh 30.07 in1018.3 mb 0.00 in0.0 mm 0.00 in/hr0.0 mm/hr 0.00 in0.0 mm
04:02 PM 38.9°F3.8°C 29.6°F-1.3°C 69% 7.0 mph WSW11.3 kmh WSW 9.0 mph14.5 kmh 30.07 in1018.3 mb 0.00 in0.0 mm 0.00 in/hr0.0 mm/hr 0.00 in0.0 mm
04:16 PM 38.8°F3.8°C 29.9°F-1.2°C 70% 7.0 mph WNW11.3 kmh WNW 9.0 mph14.5 kmh 30.08 in1018.6 mb 0.00 in0.0 mm 0.00 in/hr0.0 mm/hr 0.00 in0.0 mm
04:31 PM 38.8°F3.8°C 29.5°F-1.4°C 69% 4.0 mph W6.4 kmh W 8.0 mph12.9 kmh 30.09 in1019.0 mb 0.00 in0.0 mm 0.00 in/hr0.0 mm/hr 0.00 in0.0 mm
04:46 PM 38.4°F3.6°C 29.5°F-1.4°C 70% 4.0 mph WNW6.4 kmh WNW 11.0 mph17.7 kmh 30.09 in1019.0 mb 0.00 in0.0 mm 0.00 in/hr0.0 mm/hr 0.00 in0.0 mm
06:31 PM 37.1°F2.8°C 28.9°F-1.7°C 72% Calm Calm 4.0 mph6.4 kmh 30.13 in1020.3 mb 0.00 in0.0 mm 0.00 in/hr0.0 mm/hr 0.00 in0.0 mm
06:45 PM 36.9°F2.7°C 28.7°F-1.8°C 72% 3.0 mph NW4.8 kmh NW 6.0 mph9.7 kmh 30.14 in1020.7 mb 0.00 in0.0 mm 0.00 in/hr0.0 mm/hr 0.00 in0.0 mm
07:02 PM 36.6°F2.6°C 28.8°F-1.8°C 73% 6.0 mph NW9.7 kmh NW 6.0 mph9.7 kmh 30.14 in1020.7 mb 0.00 in0.0 mm 0.00 in/hr0.0 mm/hr 0.00 in0.0 mm
07:16 PM 36.3°F2.4°C 28.5°F-1.9°C 73% 2.0 mph NNW3.2 kmh NNW 4.0 mph6.4 kmh 30.15 in1021.0 mb 0.00 in0.0 mm 0.00 in/hr0.0 mm/hr 0.00 in0.0 mm
07:31 PM 36.2°F2.3°C 28.4°F-2.0°C 73% 1.0 mph NNW1.6 kmh NNW 3.0 mph4.8 kmh 30.15 in1021.0 mb 0.00 in0.0 mm 0.00 in/hr0.0 mm/hr 0.00 in0.0 mm
07:46 PM 36.1°F2.3°C 28.3°F-2.1°C 73% 2.0 mph NW3.2 kmh NW 2.0 mph3.2 kmh 30.15 in1021.0 mb 0.00 in0.0 mm 0.00 in/hr0.0 mm/hr 0.00 in0.0 mm
08:02 PM 35.9°F2.2°C 28.4°F-2.0°C 74% 1.0 mph NNW1.6 kmh NNW 3.0 mph4.8 kmh 30.16 in1021.3 mb 0.00 in0.0 mm 0.00 in/hr0.0 mm/hr 0.00 in0.0 mm
08:16 PM 35.8°F2.1°C 28.3°F-2.1°C 74% 2.0 mph NNW3.2 kmh NNW 4.0 mph6.4 kmh 30.15 in1021.0 mb 0.00 in0.0 mm 0.00 in/hr0.0 mm/hr 0.00 in0.0 mm
08:31 PM 35.6°F2.0°C 28.1°F-2.2°C 74% 1.0 mph NNW1.6 kmh NNW 3.0 mph4.8 kmh 30.15 in1021.0 mb 0.00 in0.0 mm 0.00 in/hr0.0 mm/hr 0.00 in0.0 mm
08:46 PM 35.6°F2.0°C 28.5°F-1.9°C 75% Calm Calm 2.0 mph3.2 kmh 30.15 in1021.0 mb 0.00 in0.0 mm 0.00 in/hr0.0 mm/hr 0.00 in0.0 mm
09:02 PM 35.9°F2.2°C 28.4°F-2.0°C 74% Calm Calm 1.0 mph1.6 kmh 30.15 in1021.0 mb 0.00 in0.0 mm 0.00 in/hr0.0 mm/hr 0.00 in0.0 mm
09:16 PM 35.8°F2.1°C 28.3°F-2.1°C 74% 1.0 mph NNW1.6 kmh NNW 2.0 mph3.2 kmh 30.15 in1021.0 mb 0.00 in0.0 mm 0.00 in/hr0.0 mm/hr 0.00 in0.0 mm
09:31 PM 35.5°F1.9°C 28.4°F-2.0°C 75% Calm Calm 1.0 mph1.6 kmh 30.15 in1021.0 mb 0.00 in0.0 mm 0.00 in/hr0.0 mm/hr 0.00 in0.0 mm
09:46 PM 35.7°F2.1°C 28.6°F-1.9°C 75% Calm Calm 2.0 mph3.2 kmh 30.15 in1021.0 mb 0.00 in0.0 mm 0.00 in/hr0.0 mm/hr 0.00 in0.0 mm
10:02 PM 36.1°F2.3°C 28.6°F-1.9°C 74% 2.0 mph NNW3.2 kmh NNW 2.0 mph3.2 kmh 30.15 in1021.0 mb 0.00 in0.0 mm 0.00 in/hr0.0 mm/hr 0.00 in0.0 mm
10:16 PM 36.1°F2.3°C 28.6°F-1.9°C 74% 1.0 mph NNW1.6 kmh NNW 2.0 mph3.2 kmh 30.16 in1021.3 mb 0.00 in0.0 mm 0.00 in/hr0.0 mm/hr 0.00 in0.0 mm
10:31 PM 36.0°F2.2°C 28.9°F-1.7°C 75% 1.0 mph NNW1.6 kmh NNW 1.0 mph1.6 kmh 30.16 in1021.3 mb 0.00 in0.0 mm 0.00 in/hr0.0 mm/hr 0.00 in0.0 mm
10:45 PM 35.8°F2.1°C 28.3°F-2.1°C 74% Calm Calm 3.0 mph4.8 kmh 30.16 in1021.3 mb 0.00 in0.0 mm 0.00 in/hr0.0 mm/hr 0.00 in0.0 mm
11:02 PM 35.3°F1.8°C 28.2°F-2.1°C 75% Calm Calm 1.0 mph1.6 kmh 30.17 in1021.7 mb 0.00 in0.0 mm 0.00 in/hr0.0 mm/hr 0.00 in0.0 mm
11:16 PM 34.9°F1.6°C 28.1°F-2.2°C 76% 1.0 mph N1.6 kmh N 2.0 mph3.2 kmh 30.17 in1021.7 mb 0.00 in0.0 mm 0.00 in/hr0.0 mm/hr 0.00 in0.0 mm
11:31 PM 34.6°F1.4°C 27.8°F-2.3°C 76% 1.0 mph N1.6 kmh N 3.0 mph4.8 kmh 30.17 in1021.7 mb 0.00 in0.0 mm 0.00 in/hr0.0 mm/hr 0.00 in0.0 mm
11:46 PM 34.3°F1.3°C 27.5°F-2.5°C 76% 1.0 mph N1.6 kmh N 2.0 mph3.2 kmh 30.17 in1021.7 mb 0.00 in0.0 mm 0.00 in/hr0.0 mm/hr 0.00 in0.0 mm